Time;durP1;ratioP1;P1;durP2;ratioP2;P2;SDS_P1;SDS_P2;PMS_P1;PMS_P2;Temp;Humidity;BMP_temperature;BMP_pressure;BME280_temperature;BME280_humidity;BME280_pressure;Samples;Min_cycle;Max_cycle;Signal;HPM_P1;HPM_P2
2022/06/02 00:01:07;;;;;;;;;;;;;;;16.43;60.10;99704.34;4500149;31;19976;-86
2022/06/02 00:03:51;;;;;;;;;;;;;;;16.47;60.11;99693.56;4485745;31;19996;-86
2022/06/02 00:06:17;;;;;;;;;;;;;;;16.61;60.10;99687.53;4486614;32;20185;-86
2022/06/02 00:09:01;;;;;;;;;;;;;;;16.61;60.10;99695.41;4472094;32;20783;-87
2022/06/02 00:11:36;;;;;;;;;;;;;;;16.54;60.10;99689.63;4472115;32;20056;-86
2022/06/02 00:14:04;;;;;;;;;;;;;;;16.37;60.09;99694.19;4486270;32;19995;-87
2022/06/02 00:16:38;;;;;;;;;;;;;;;16.35;60.09;99690.78;4486307;32;20039;-86
2022/06/02 00:19:05;;;;;;;;;;;;;;;16.30;60.08;99698.06;4486038;32;20037;-87
2022/06/02 00:21:36;;;;;;;;;;;;;;;16.23;60.09;99690.53;4472319;32;19991;-86
2022/06/02 00:24:23;;;;;;;;;;;;;;;16.16;60.08;99689.19;4472152;32;20500;-87
2022/06/02 00:26:51;;;;;;;;;;;;;;;16.14;60.08;99687.59;4498726;32;19975;-86
2022/06/02 00:29:34;;;;;;;;;;;;;;;16.24;60.09;99689.59;4488517;32;19994;-87
2022/06/02 00:32:04;;;;;;;;;;;;;;;16.23;60.09;99690.53;4458677;32;19976;-85
2022/06/02 00:34:46;;;;;;;;;;;;;;;16.23;60.09;99687.91;4472022;32;20389;-85
2022/06/02 00:37:23;;;;;;;;;;;;;;;16.31;60.08;99684.00;4460619;32;19957;-86
2022/06/02 00:39:49;;;;;;;;;;;;;;;16.25;60.09;99683.41;4486613;32;19976;-86
2022/06/02 00:42:23;;;;;;;;;;;;;;;16.30;60.08;99682.31;4486624;31;20334;-88
2022/06/02 00:44:52;;;;;;;;;;;;;;;16.28;60.08;99683.22;4486595;32;19996;-88
2022/06/02 00:47:36;;;;;;;;;;;;;;;16.56;60.10;99672.03;4485347;32;20044;-87
2022/06/02 00:50:20;;;;;;;;;;;;;;;16.44;60.09;99677.97;4486370;31;19986;-88
2022/06/02 00:53:04;;;;;;;;;;;;;;;16.57;60.10;99678.12;4487524;32;19969;-87
2022/06/02 00:58:51;;;;;;;;;;;;;;;16.46;60.09;99662.12;4486501;32;20004;-89
2022/06/02 01:01:19;;;;;;;;;;;;;;;16.56;60.10;99666.78;4486458;32;19984;-89
2022/06/02 01:03:45;;;;;;;;;;;;;;;16.60;60.10;99670.06;4471909;32;19969;-88
2022/06/02 01:06:20;;;;;;;;;;;;;;;16.68;60.10;99667.84;4485101;32;20581;-88
2022/06/02 01:09:04;;;;;;;;;;;;;;;16.74;60.11;99656.97;4486499;31;20003;-89
2022/06/02 01:11:29;;;;;;;;;;;;;;;16.72;60.11;99663.25;4485160;32;19984;-89
2022/06/02 01:14:07;;;;;;;;;;;;;;;16.90;60.12;99664.81;4486253;32;19976;-89
2022/06/02 01:16:38;;;;;;;;;;;;;;;16.81;60.11;99663.59;4485546;32;20333;-90
2022/06/02 01:19:25;;;;;;;;;;;;;;;16.95;60.12;99657.50;4472582;32;19988;-89
2022/06/02 01:22:00;;;;;;;;;;;;;;;17.09;60.13;99660.16;4472901;32;19976;-89
2022/06/02 01:24:29;;;;;;;;;;;;;;;17.40;60.15;99648.59;4485898;32;19976;-89
2022/06/02 01:27:01;;;;;;;;;;;;;;;17.21;60.13;99645.41;4472867;32;20344;-90
2022/06/02 01:29:32;;;;;;;;;;;;;;;17.16;60.14;99644.84;4486103;32;19995;-90
2022/06/02 01:32:00;;;;;;;;;;;;;;;17.12;60.13;99638.94;4487353;32;20392;-89
2022/06/02 01:34:25;;;;;;;;;;;;;;;17.32;60.14;99637.72;4487240;32;19957;-89
2022/06/02 01:36:55;;;;;;;;;;;;;;;17.30;60.15;99630.84;4487160;32;20011;-88
2022/06/02 01:39:29;;;;;;;;;;;;;;;17.30;60.15;99634.34;4472687;32;19989;-88
2022/06/02 01:42:00;;;;;;;;;;;;;;;17.24;60.14;99639.94;4486902;32;19980;-89
2022/06/02 01:44:56;;;;;;;;;;;;;;;17.64;60.16;99638.34;4487119;31;19973;-89
2022/06/02 01:47:22;;;;;;;;;;;;;;;17.72;60.16;99635.25;4464111;31;19985;-88
2022/06/02 01:50:06;;;;;;;;;;;;;;;17.56;60.16;99642.41;4485689;32;20015;-89
2022/06/02 01:52:43;;;;;;;;;;;;;;;17.61;60.16;99641.16;4487141;31;19999;-89
2022/06/02 01:55:20;;;;;;;;;;;;;;;17.72;60.16;99629.97;4486996;32;20250;-87
2022/06/02 01:57:52;;;;;;;;;;;;;;;17.57;60.15;99636.19;4485554;32;20007;-88
2022/06/02 02:00:18;;;;;;;;;;;;;;;17.62;60.16;99623.59;4472747;32;20470;-87
2022/06/02 02:03:02;;;;;;;;;;;;;;;17.60;60.15;99628.94;4472954;32;20324;-88
2022/06/02 02:05:28;;;;;;;;;;;;;;;17.70;60.17;99626.59;4487043;31;19969;-89
2022/06/02 02:08:03;;;;;;;;;;;;;;;17.55;60.16;99617.03;4485496;32;19984;-88
2022/06/02 02:10:34;;;;;;;;;;;;;;;17.46;60.14;99623.69;4485963;32;19988;-88
2022/06/02 02:13:00;;;;;;;;;;;;;;;17.76;60.16;99626.22;4494638;31;19949;-89
2022/06/02 02:15:26;;;;;;;;;;;;;;;17.65;60.16;99620.75;4495004;32;19964;-89
2022/06/02 02:17:51;;;;;;;;;;;;;;;17.63;60.16;99630.53;4487866;31;20026;-88
2022/06/02 02:20:19;;;;;;;;;;;;;;;17.85;60.17;99633.53;4487120;32;19976;-88
2022/06/02 02:22:57;;;;;;;;;;;;;;;17.93;60.17;99640.94;4486841;32;19994;-89
2022/06/02 02:25:34;;;;;;;;;;;;;;;17.97;60.17;99639.78;4486457;32;19964;-89
2022/06/02 02:28:12;;;;;;;;;;;;;;;17.97;60.17;99659.06;4485602;32;19988;-90
2022/06/02 02:30:42;;;;;;;;;;;;;;;17.82;60.16;99675.03;4485685;32;19984;-88
2022/06/02 02:33:12;;;;;;;;;;;;;;;17.83;60.16;99689.88;4485632;32;20299;-92
2022/06/02 02:35:56;;;;;;;;;;;;;;;17.84;60.17;99705.56;4472551;32;20277;-91
2022/06/02 02:38:25;;;;;;;;;;;;;;;17.66;60.16;99704.03;4486019;32;20052;-91
2022/06/02 02:40:51;;;;;;;;;;;;;;;17.45;60.14;99712.31;4486461;32;20375;-93
2022/06/02 02:43:36;;;;;;;;;;;;;;;17.64;60.16;99713.81;4473324;32;20344;-93
2022/06/02 02:46:15;;;;;;;;;;;;;;;17.67;60.16;99722.41;4486800;32;19964;-93
2022/06/02 02:48:49;;;;;;;;;;;;;;;17.84;60.17;99724.00;4473403;32;20024;-94
2022/06/02 02:51:17;;;;;;;;;;;;;;;17.76;60.15;99750.81;4474024;32;20347;-93
2022/06/02 02:53:46;;;;;;;;;;;;;;;17.43;60.15;99787.03;4486392;32;19984;-92
2022/06/02 02:56:16;;;;;;;;;;;;;;;17.46;60.14;99776.31;4486699;32;20294;-92
2022/06/02 02:58:42;;;;;;;;;;;;;;;17.26;60.14;99763.50;4472442;32;19965;-91
2022/06/02 03:01:26;;;;;;;;;;;;;;;17.54;60.16;99775.88;4485326;32;19984;-90
2022/06/02 03:04:10;;;;;;;;;;;;;;;17.49;60.15;99791.91;4486994;31;20037;-90
2022/06/02 03:06:36;;;;;;;;;;;;;;;17.70;60.16;99784.56;4485379;32;20023;-90
2022/06/02 03:09:03;;;;;;;;;;;;;;;17.61;60.15;99792.97;4485067;32;20056;-87
2022/06/02 03:11:34;;;;;;;;;;;;;;;17.61;60.15;99803.50;4486561;31;20023;-90
2022/06/02 03:14:17;;;;;;;;;;;;;;;17.41;60.15;99809.97;4486491;31;20002;-88
2022/06/02 03:16:42;;;;;;;;;;;;;;;17.50;60.15;99793.59;4472201;32;19982;-87
2022/06/02 03:19:26;;;;;;;;;;;;;;;17.62;60.16;99798.16;4471712;32;20011;-88
2022/06/02 03:21:56;;;;;;;;;;;;;;;17.69;60.17;99802.13;4486654;31;19984;-89
2022/06/02 03:24:29;;;;;;;;;;;;;;;17.53;60.15;99800.50;4485277;32;19976;-88
2022/06/02 03:27:02;;;;;;;;;;;;;;;17.43;60.14;99798.41;4485172;32;19984;-88
2022/06/02 03:29:30;;;;;;;;;;;;;;;17.53;60.14;99803.13;4472159;32;20011;-88
2022/06/02 03:31:56;;;;;;;;;;;;;;;17.43;60.15;99813.34;4486040;32;20017;-85
2022/06/02 03:34:21;;;;;;;;;;;;;;;17.18;60.13;99820.03;4485973;31;19980;-85
2022/06/02 03:37:10;;;;;;;;;;;;;;;17.30;60.15;99809.75;4485988;32;20021;-86
2022/06/02 03:39:54;;;;;;;;;;;;;;;17.47;60.15;99796.44;4452200;32;20012;-85
2022/06/02 03:42:25;;;;;;;;;;;;;;;17.66;60.16;99786.50;4490205;31;20005;-88
2022/06/02 03:44:56;;;;;;;;;;;;;;;17.56;60.15;99776.62;4486808;32;19986;-88
2022/06/02 03:47:36;;;;;;;;;;;;;;;17.73;60.16;99765.94;4473565;32;20319;-88
2022/06/02 03:50:28;;;;;;;;;;;;;;;17.79;60.17;99748.00;4487748;31;20372;-86
2022/06/02 03:53:06;;;;;;;;;;;;;;;17.76;60.17;99735.03;4484547;32;20351;-87
2022/06/02 03:55:35;;;;;;;;;;;;;;;17.84;60.17;99723.16;4486641;32;20021;-86
2022/06/02 03:58:23;;;;;;;;;;;;;;;17.92;60.16;99715.62;4486849;32;19953;-86
2022/06/02 04:00:49;;;;;;;;;;;;;;;18.01;60.18;99715.91;4498167;32;19979;-85
2022/06/02 04:03:32;;;;;;;;;;;;;;;18.17;60.19;99717.53;4489409;31;20025;-86
2022/06/02 04:05:58;;;;;;;;;;;;;;;18.27;60.19;99729.22;4487556;32;20028;-87
2022/06/02 04:08:29;;;;;;;;;;;;;;;18.19;60.19;99737.56;4487639;32;19961;-86
2022/06/02 04:11:03;;;;;;;;;;;;;;;18.19;60.18;99744.63;4486084;32;19992;-85
2022/06/02 04:13:37;;;;;;;;;;;;;;;18.21;60.18;99742.75;4486212;32;20497;-86
2022/06/02 04:16:05;;;;;;;;;;;;;;;18.33;60.19;99745.47;4487516;31;20371;-87
2022/06/02 04:18:43;;;;;;;;;;;;;;;18.28;60.18;99741.44;4487481;32;20041;-86
2022/06/02 04:21:27;;;;;;;;;;;;;;;18.30;60.18;99744.81;4487397;32;20030;-87
2022/06/02 04:24:14;;;;;;;;;;;;;;;18.34;60.18;99751.56;4486393;32;20325;-87
2022/06/02 04:26:42;;;;;;;;;;;;;;;18.32;60.19;99761.38;4486644;32;19976;-87
2022/06/02 04:29:08;;;;;;;;;;;;;;;18.47;60.20;99751.66;4486385;32;19979;-88
2022/06/02 04:32:05;;;;;;;;;;;;;;;18.48;60.20;99746.28;4487610;32;19980;-87
2022/06/02 04:34:54;;;;;;;;;;;;;;;18.58;60.20;99738.59;4452146;31;19984;-87
2022/06/02 04:37:38;;;;;;;;;;;;;;;18.58;60.20;99746.50;4479201;32;19977;-86
2022/06/02 04:40:06;;;;;;;;;;;;;;;18.59;60.20;99754.31;4487687;31;19965;-86
2022/06/02 04:42:37;;;;;;;;;;;;;;;18.77;60.22;99757.59;4472808;32;20015;-86
2022/06/02 04:45:18;;;;;;;;;;;;;;;18.74;60.21;99762.22;4487371;32;19988;-86
2022/06/02 04:48:00;;;;;;;;;;;;;;;18.91;60.21;99751.38;4486065;32;20033;-86
2022/06/02 04:50:27;;;;;;;;;;;;;;;18.96;60.23;99757.22;4486039;32;20298;-84
2022/06/02 04:52:59;;;;;;;;;;;;;;;18.80;60.21;99756.53;4472792;32;20008;-85
2022/06/02 04:55:43;;;;;;;;;;;;;;;18.76;60.21;99755.06;4485811;32;20032;-85
2022/06/02 04:58:11;;;;;;;;;;;;;;;18.90;60.22;99752.34;4487202;31;19972;-84
2022/06/02 05:00:44;;;;;;;;;;;;;;;18.89;60.21;99756.78;4487086;32;20044;-85
2022/06/02 05:03:15;;;;;;;;;;;;;;;19.08;60.23;99750.28;4487252;31;19976;-85
2022/06/02 05:06:00;;;;;;;;;;;;;;;19.10;60.23;99754.50;4486057;32;19980;-85
2022/06/02 05:08:29;;;;;;;;;;;;;;;19.11;60.23;99755.34;4486708;32;20016;-85
2022/06/02 05:11:13;;;;;;;;;;;;;;;19.24;60.24;99767.63;4486007;32;20011;-85
2022/06/02 05:13:39;;;;;;;;;;;;;;;19.32;60.24;99769.72;4485570;32;20011;-85
2022/06/02 05:16:24;;;;;;;;;;;;;;;19.50;60.25;99763.22;4487032;32;20024;-85
2022/06/02 05:18:55;;;;;;;;;;;;;;;19.55;60.25;99768.19;4487013;31;19984;-85
2022/06/02 05:21:28;;;;;;;;;;;;;;;19.37;60.23;99772.06;4485621;32;20320;-86
2022/06/02 05:24:09;;;;;;;;;;;;;;;19.48;60.25;99772.19;4472551;32;20420;-85
2022/06/02 05:26:40;;;;;;;;;;;;;;;19.61;60.25;99780.97;4487058;31;19992;-85
2022/06/02 05:29:21;;;;;;;;;;;;;;;19.42;60.24;99783.16;4486975;32;19995;-85
2022/06/02 05:31:58;;;;;;;;;;;;;;;19.41;60.25;99787.59;4485503;32;20049;-85
2022/06/02 05:34:32;;;;;;;;;;;;;;;19.51;60.24;99788.66;4472629;32;20044;-85
2022/06/02 05:37:00;;;;;;;;;;;;;;;19.39;60.24;99786.00;4485600;32;20004;-85
2022/06/02 05:39:38;;;;;;;;;;;;;;;19.56;60.25;99794.50;4485753;32;20117;-85
2022/06/02 05:42:03;;;;;;;;;;;;;;;19.56;60.25;99798.94;4486944;32;19969;-85
2022/06/02 05:44:32;;;;;;;;;;;;;;;19.55;60.25;99803.37;4486711;32;19969;-85
2022/06/02 05:47:04;;;;;;;;;;;;;;;19.74;60.25;99808.25;4486853;32;20052;-85
2022/06/02 05:49:35;;;;;;;;;;;;;;;19.81;60.26;99808.66;4473095;32;19980;-85
2022/06/02 05:52:12;;;;;;;;;;;;;;;19.69;60.25;99805.06;4486772;32;19991;-85
2022/06/02 05:54:43;;;;;;;;;;;;;;;19.85;60.27;99800.41;4486739;32;19998;-85
2022/06/02 05:57:17;;;;;;;;;;;;;;;20.09;60.28;99799.66;4485619;32;20007;-85
2022/06/02 06:00:01;;;;;;;;;;;;;;;20.20;60.28;99802.37;4485215;32;19976;-85
2022/06/02 06:02:33;;;;;;;;;;;;;;;20.30;60.29;99803.41;4485729;32;19984;-85
2022/06/02 06:05:17;;;;;;;;;;;;;;;20.52;60.30;99811.53;4485738;32;20370;-85
2022/06/02 06:07:51;;;;;;;;;;;;;;;20.66;60.31;99815.00;4486861;31;20257;-85
2022/06/02 06:10:23;;;;;;;;;;;;;;;20.92;60.32;99808.63;4486817;32;19981;-85
2022/06/02 06:13:08;;;;;;;;;;;;;;;21.28;60.34;99809.50;4472533;32;19989;-86
2022/06/02 06:15:39;;;;;;;;;;;;;;;21.56;60.36;99797.69;4485392;32;19997;-85
2022/06/02 06:18:34;;;;;;;;;;;;;;;21.76;60.36;99794.31;4485081;32;19992;-85
2022/06/02 06:21:02;;;;;;;;;;;;;;;21.99;60.38;99800.47;4468668;32;19995;-84
2022/06/02 06:23:43;;;;;;;;;;;;;;;22.17;60.38;99795.56;4472602;32;19999;-84
2022/06/02 06:26:21;;;;;;;;;;;;;;;22.22;60.39;99799.53;4485277;32;19996;-84
2022/06/02 06:28:50;;;;;;;;;;;;;;;22.29;60.39;99800.75;4486712;32;20367;-84
2022/06/02 06:31:19;;;;;;;;;;;;;;;22.67;60.41;99805.63;4485411;32;20012;-84
2022/06/02 06:33:50;;;;;;;;;;;;;;;22.94;60.42;99799.06;4486717;32;20576;-84
2022/06/02 06:36:28;;;;;;;;;;;;;;;22.85;60.42;99805.97;4472291;32;20007;-84
2022/06/02 06:38:59;;;;;;;;;;;;;;;22.99;60.43;99806.66;4486591;32;20273;-85
2022/06/02 06:41:30;;;;;;;;;;;;;;;23.02;60.43;99815.22;4486429;32;19977;-85
2022/06/02 06:44:14;;;;;;;;;;;;;;;23.17;60.43;99818.37;4486589;32;20022;-85
2022/06/02 06:46:45;;;;;;;;;;;;;;;23.22;60.44;99819.72;4486811;31;20302;-85
2022/06/02 06:49:22;;;;;;;;;;;;;;;23.12;60.44;99825.91;4485502;32;20116;-85
2022/06/02 06:52:07;;;;;;;;;;;;;;;23.35;60.45;99824.81;4485367;32;20032;-85
2022/06/02 06:54:41;;;;;;;;;;;;;;;23.55;60.45;99829.31;4486597;31;20574;-85
2022/06/02 06:57:08;;;;;;;;;;;;;;;23.83;60.47;99825.16;4472301;32;20334;-85
2022/06/02 06:59:43;;;;;;;;;;;;;;;23.67;60.46;99826.63;4486778;31;19998;-85
2022/06/02 07:02:12;;;;;;;;;;;;;;;23.92;60.48;99828.88;4486548;31;19976;-85
2022/06/02 07:04:40;;;;;;;;;;;;;;;24.04;60.48;99822.47;4486363;31;20357;-85
2022/06/02 07:07:12;;;;;;;;;;;;;;;24.37;60.50;99826.72;4486316;32;19980;-85
2022/06/02 07:09:49;;;;;;;;;;;;;;;24.57;60.50;99826.75;4485165;32;19992;-85
2022/06/02 07:15:12;;;;;;;;;;;;;;;24.55;60.51;99826.06;4485195;32;19983;-85
2022/06/02 07:17:40;;;;;;;;;;;;;;;24.69;60.52;99833.66;4486028;32;19992;-85
2022/06/02 07:20:07;;;;;;;;;;;;;;;24.75;60.51;99836.59;4484873;32;20004;-85
2022/06/02 07:22:38;;;;;;;;;;;;;;;24.87;60.52;99831.19;4484878;32;19995;-85
2022/06/02 07:25:06;;;;;;;;;;;;;;;24.86;60.53;99840.16;4484967;32;19984;-85
2022/06/02 07:27:33;;;;;;;;;;;;;;;24.86;60.53;99834.81;4484687;32;20007;-85
2022/06/02 07:30:03;;;;;;;;;;;;;;;24.97;60.53;99827.53;4484852;32;19993;-85
2022/06/02 07:32:35;;;;;;;;;;;;;;;24.93;60.53;99830.63;4471683;32;19976;-85
2022/06/02 07:35:27;;;;;;;;;;;;;;;25.07;60.54;99828.41;4471638;32;20080;-85
2022/06/02 07:38:00;;;;;;;;;;;;;;;24.96;60.53;99828.50;4461069;31;20043;-85
2022/06/02 07:40:35;;;;;;;;;;;;;;;24.97;60.53;99827.53;4484709;32;20384;-85
2022/06/02 07:43:03;;;;;;;;;;;;;;;25.22;60.54;99826.16;4485823;32;20003;-85
2022/06/02 07:45:31;;;;;;;;;;;;;;;25.45;60.55;99829.38;4485708;32;19972;-85
2022/06/02 07:47:57;;;;;;;;;;;;;;;24.93;60.53;99833.28;4484602;32;19999;-86
2022/06/02 07:50:23;;;;;;;;;;;;;;;24.83;60.52;99843.06;4485723;31;19988;-85
2022/06/02 07:52:55;;;;;;;;;;;;;;;24.95;60.53;99839.31;4484465;32;19977;-85
2022/06/02 07:55:39;;;;;;;;;;;;;;;24.96;60.53;99833.84;4485577;31;20302;-84
2022/06/02 07:58:20;;;;;;;;;;;;;;;25.19;60.54;99837.09;4485561;31;19980;-86
2022/06/02 08:00:54;;;;;;;;;;;;;;;25.06;60.53;99836.53;4471522;32;20048;-85
2022/06/02 08:03:43;;;;;;;;;;;;;;;24.90;60.53;99846.88;4485432;32;20245;-85
2022/06/02 08:06:22;;;;;;;;;;;;;;;25.12;60.54;99840.47;4484250;32;20032;-85
2022/06/02 08:08:57;;;;;;;;;;;;;;;25.14;60.55;99850.00;4485394;31;19989;-85
2022/06/02 08:11:24;;;;;;;;;;;;;;;25.25;60.55;99851.69;4484082;32;20463;-85
2022/06/02 08:13:56;;;;;;;;;;;;;;;24.93;60.53;99855.41;4484193;32;19980;-84
2022/06/02 08:16:23;;;;;;;;;;;;;;;24.88;60.53;99844.34;4485253;32;20032;-86
2022/06/02 08:19:07;;;;;;;;;;;;;;;25.17;60.55;99848.87;4484027;32;19984;-85
2022/06/02 08:21:48;;;;;;;;;;;;;;;25.05;60.53;99845.50;4485258;31;19981;-84
2022/06/02 08:24:27;;;;;;;;;;;;;;;25.12;60.54;99848.47;4472068;32;20364;-85
2022/06/02 08:26:52;;;;;;;;;;;;;;;25.43;60.55;99847.34;4487567;31;19972;-85
2022/06/02 08:29:36;;;;;;;;;;;;;;;25.64;60.57;99844.50;4487547;31;20036;-85
2022/06/02 08:32:07;;;;;;;;;;;;;;;25.58;60.57;99837.94;4487793;31;20411;-85
2022/06/02 08:34:38;;;;;;;;;;;;;;;25.48;60.57;99849.56;4487374;31;19973;-85
2022/06/02 08:37:14;;;;;;;;;;;;;;;25.62;60.58;99846.47;4486291;32;20301;-84
2022/06/02 08:39:51;;;;;;;;;;;;;;;25.68;60.57;99845.94;4473235;32;20004;-85
2022/06/02 08:42:33;;;;;;;;;;;;;;;26.06;60.59;99845.00;4486162;32;20029;-85
2022/06/02 08:45:05;;;;;;;;;;;;;;;26.56;60.62;99842.84;4486105;32;20025;-85
2022/06/02 08:47:39;;;;;;;;;;;;;;;26.80;60.63;99836.09;4487455;32;20309;-85
2022/06/02 08:50:23;;;;;;;;;;;;;;;26.86;60.63;99854.19;4487394;31;19998;-85
2022/06/02 08:53:03;;;;;;;;;;;;;;;27.02;60.64;99849.03;4487397;31;19980;-86
2022/06/02 08:55:46;;;;;;;;;;;;;;;27.10;60.64;99846.44;4487431;31;20395;-85
2022/06/02 08:58:12;;;;;;;;;;;;;;;27.00;60.64;99848.34;4487617;31;20241;-85
2022/06/02 09:00:54;;;;;;;;;;;;;;;26.92;60.63;99845.56;4487238;31;20025;-85
2022/06/02 09:03:31;;;;;;;;;;;;;;;26.89;60.64;99841.34;4486009;32;19989;-85
2022/06/02 09:06:15;;;;;;;;;;;;;;;26.65;60.62;99846.44;4487209;32;20015;-84
2022/06/02 09:08:40;;;;;;;;;;;;;;;26.73;60.63;99851.00;4487529;31;19977;-85
2022/06/02 09:11:41;;;;;;;;;;;;;;;26.70;60.62;99862.84;4487200;32;20333;-85
2022/06/02 09:14:09;;;;;;;;;;;;;;;26.84;60.63;99864.16;4422916;32;19990;-85
2022/06/02 09:16:53;;;;;;;;;;;;;;;26.99;60.64;99869.84;4470619;32;19977;-85
2022/06/02 09:19:35;;;;;;;;;;;;;;;27.11;60.64;99874.00;4487266;31;19969;-85
2022/06/02 09:22:07;;;;;;;;;;;;;;;27.11;60.64;99880.19;4485999;32;20341;-86
2022/06/02 09:24:33;;;;;;;;;;;;;;;27.15;60.65;99878.87;4487189;32;19999;-84
2022/06/02 09:26:59;;;;;;;;;;;;;;;27.21;60.65;99880.13;4485834;32;19999;-85
2022/06/02 09:29:27;;;;;;;;;;;;;;;27.02;60.64;99877.59;4487137;31;20277;-84
2022/06/02 09:31:58;;;;;;;;;;;;;;;27.18;60.65;99872.37;4487107;32;20019;-84
2022/06/02 09:34:35;;;;;;;;;;;;;;;27.46;60.67;99867.81;4486911;32;20044;-85
2022/06/02 09:37:19;;;;;;;;;;;;;;;27.60;60.68;99879.78;4485282;32;20048;-85
2022/06/02 09:39:47;;;;;;;;;;;;;;;27.56;60.66;99870.41;4487351;31;19972;-84
2022/06/02 09:42:31;;;;;;;;;;;;;;;27.49;60.66;99876.38;4486831;32;19984;-84
2022/06/02 09:45:02;;;;;;;;;;;;;;;27.42;60.66;99879.78;4487264;31;19996;-84
2022/06/02 09:47:31;;;;;;;;;;;;;;;27.49;60.67;99875.53;4487197;32;19980;-84
2022/06/02 09:50:07;;;;;;;;;;;;;;;27.53;60.67;99872.37;4486138;32;20064;-83
2022/06/02 09:52:33;;;;;;;;;;;;;;;27.51;60.67;99878.87;4487113;31;19981;-83
2022/06/02 09:55:09;;;;;;;;;;;;;;;27.51;60.67;99871.72;4487057;32;19968;-83
2022/06/02 09:57:55;;;;;;;;;;;;;;;27.59;60.68;99865.56;4485862;32;20330;-83
2022/06/02 10:00:38;;;;;;;;;;;;;;;27.59;60.68;99862.91;4486902;31;19977;-83
2022/06/02 10:03:23;;;;;;;;;;;;;;;27.47;60.67;99854.31;4485580;32;19984;-83
2022/06/02 10:05:48;;;;;;;;;;;;;;;27.50;60.67;99859.34;4487040;31;19998;-83
2022/06/02 10:08:29;;;;;;;;;;;;;;;27.55;60.67;99861.53;4487096;32;19980;-83
2022/06/02 10:10:57;;;;;;;;;;;;;;;27.56;60.67;99860.53;4487097;32;20244;-83
2022/06/02 10:13:27;;;;;;;;;;;;;;;27.63;60.68;99866.13;4486912;32;20491;-83
2022/06/02 10:16:13;;;;;;;;;;;;;;;27.62;60.67;99851.91;4472436;32;19991;-83
2022/06/02 10:18:43;;;;;;;;;;;;;;;27.76;60.69;99851.38;4453963;31;19980;-83
2022/06/02 10:21:08;;;;;;;;;;;;;;;28.00;60.70;99858.72;4485791;32;20049;-83
2022/06/02 10:23:48;;;;;;;;;;;;;;;28.09;60.70;99849.72;4486970;32;19999;-83
2022/06/02 10:26:23;;;;;;;;;;;;;;;28.22;60.71;99860.00;4486967;32;19995;-82
2022/06/02 10:29:04;;;;;;;;;;;;;;;28.18;60.71;99857.81;4486986;31;20059;-83
2022/06/02 10:31:29;;;;;;;;;;;;;;;28.19;60.70;99862.16;4485547;32;20003;-83
2022/06/02 10:34:32;;;;;;;;;;;;;;;28.26;60.70;99857.88;4486609;32;20318;-83
2022/06/02 10:37:00;;;;;;;;;;;;;;;28.19;60.70;99856.81;4422367;32;20035;-83
2022/06/02 10:39:30;;;;;;;;;;;;;;;27.85;60.69;99849.56;4409731;32;20005;-83
2022/06/02 10:42:06;;;;;;;;;;;;;;;27.89;60.69;99861.63;4446933;32;19976;-83
2022/06/02 10:44:50;;;;;;;;;;;;;;;28.23;60.72;99861.69;4485477;32;20019;-84
2022/06/02 10:47:34;;;;;;;;;;;;;;;28.43;60.72;99860.47;4486405;32;20297;-83
2022/06/02 10:50:08;;;;;;;;;;;;;;;28.74;60.73;99862.59;4485523;32;19984;-83
2022/06/02 10:52:33;;;;;;;;;;;;;;;28.71;60.73;99869.09;4486525;32;19976;-82
2022/06/02 10:55:28;;;;;;;;;;;;;;;28.58;60.73;99867.88;4486218;32;20314;-83
2022/06/02 10:57:56;;;;;;;;;;;;;;;28.42;60.72;99872.19;4472517;31;19981;-83
2022/06/02 11:00:27;;;;;;;;;;;;;;;28.51;60.72;99869.53;4485155;32;20332;-83
2022/06/02 11:02:53;;;;;;;;;;;;;;;28.43;60.72;99859.62;4486513;32;20331;-82
2022/06/02 11:05:38;;;;;;;;;;;;;;;28.27;60.71;99862.22;4486377;31;19980;-83
2022/06/02 11:08:06;;;;;;;;;;;;;;;28.43;60.72;99855.13;4486698;31;20246;-83
2022/06/02 11:10:40;;;;;;;;;;;;;;;28.65;60.73;99859.06;4484882;32;20349;-82
2022/06/02 11:13:24;;;;;;;;;;;;;;;28.55;60.73;99852.12;4486321;31;20005;-82
2022/06/02 11:15:55;;;;;;;;;;;;;;;28.56;60.73;99848.47;4486285;31;20028;-83
2022/06/02 11:18:39;;;;;;;;;;;;;;;28.64;60.73;99846.66;4484806;32;20040;-83
2022/06/02 11:21:12;;;;;;;;;;;;;;;28.55;60.73;99849.47;4484789;32;20460;-82
2022/06/02 11:23:38;;;;;;;;;;;;;;;28.71;60.73;99858.41;4484956;32;19964;-82
2022/06/02 11:26:22;;;;;;;;;;;;;;;28.81;60.74;99849.37;4484669;32;20065;-83
2022/06/02 11:29:07;;;;;;;;;;;;;;;28.76;60.73;99852.53;4486352;31;19988;-83
2022/06/02 11:31:32;;;;;;;;;;;;;;;28.89;60.74;99861.00;4484726;32;19988;-83
2022/06/02 11:34:08;;;;;;;;;;;;;;;29.08;60.75;99857.16;4485898;32;19968;-83
2022/06/02 11:36:33;;;;;;;;;;;;;;;29.25;60.76;99845.44;4484637;32;20022;-83
2022/06/02 11:38:58;;;;;;;;;;;;;;;29.22;60.76;99864.56;4485775;32;20029;-83
2022/06/02 11:41:53;;;;;;;;;;;;;;;28.84;60.73;99863.28;4485741;32;19985;-83
2022/06/02 11:44:24;;;;;;;;;;;;;;;28.92;60.74;99867.88;4472181;31;19976;-83
2022/06/02 11:46:58;;;;;;;;;;;;;;;29.11;60.76;99869.41;4484830;32;19997;-83
2022/06/02 11:49:26;;;;;;;;;;;;;;;29.05;60.75;99870.91;4471736;32;20012;-84
2022/06/02 11:51:58;;;;;;;;;;;;;;;28.82;60.74;99867.97;4484251;32;19976;-83
2022/06/02 11:54:29;;;;;;;;;;;;;;;28.83;60.74;99868.78;4484256;32;20354;-83
2022/06/02 11:57:01;;;;;;;;;;;;;;;28.55;60.73;99874.41;4485590;32;20319;-82
2022/06/02 11:59:29;;;;;;;;;;;;;;;28.19;60.70;99876.38;4486897;32;19988;-82
2022/06/02 12:01:54;;;;;;;;;;;;;;;28.11;60.70;99874.47;4487675;32;19991;-83
2022/06/02 12:04:38;;;;;;;;;;;;;;;28.20;60.71;99874.56;4487628;32;19972;-83
2022/06/02 12:07:22;;;;;;;;;;;;;;;28.24;60.72;99868.72;4487931;31;19976;-83
2022/06/02 12:09:59;;;;;;;;;;;;;;;28.36;60.72;99862.09;4487695;31;20030;-83
2022/06/02 12:12:41;;;;;;;;;;;;;;;28.60;60.73;99861.34;4486307;32;19981;-83
2022/06/02 12:15:19;;;;;;;;;;;;;;;28.78;60.74;99869.28;4486312;32;20030;-84
2022/06/02 12:17:47;;;;;;;;;;;;;;;28.94;60.75;99868.53;4487596;32;20052;-83
2022/06/02 12:20:18;;;;;;;;;;;;;;;28.99;60.74;99869.72;4487700;32;19989;-83
2022/06/02 12:22:45;;;;;;;;;;;;;;;29.07;60.75;99871.56;4487542;31;20340;-83
2022/06/02 12:25:30;;;;;;;;;;;;;;;28.85;60.75;99866.78;4486072;32;20044;-83
2022/06/02 12:28:02;;;;;;;;;;;;;;;29.09;60.75;99866.03;4487725;31;19984;-83
2022/06/02 12:30:46;;;;;;;;;;;;;;;29.29;60.76;99875.44;4486576;32;19996;-82
2022/06/02 12:33:20;;;;;;;;;;;;;;;29.39;60.77;99878.81;4486220;32;20325;-83
2022/06/02 12:35:47;;;;;;;;;;;;;;;29.37;60.77;99870.13;4487381;32;19980;-83
2022/06/02 12:38:15;;;;;;;;;;;;;;;29.21;60.76;99876.28;4487434;31;20366;-83
2022/06/02 12:40:43;;;;;;;;;;;;;;;28.83;60.74;99872.31;4486144;32;20371;-83
2022/06/02 12:43:23;;;;;;;;;;;;;;;28.89;60.75;99884.28;4487436;32;20325;-83
2022/06/02 12:45:50;;;;;;;;;;;;;;;28.98;60.75;99881.44;4487504;32;20012;-83
2022/06/02 12:48:29;;;;;;;;;;;;;;;29.23;60.76;99879.63;4486114;32;19992;-83
2022/06/02 12:51:13;;;;;;;;;;;;;;;29.20;60.77;99881.81;4486256;32;19992;-83
2022/06/02 12:53:49;;;;;;;;;;;;;;;29.52;60.78;99868.44;4487419;31;20341;-83
2022/06/02 12:56:15;;;;;;;;;;;;;;;29.73;60.79;99886.72;4486599;32;19996;-83
2022/06/02 12:58:59;;;;;;;;;;;;;;;29.59;60.78;99885.56;4487412;31;19980;-83
2022/06/02 13:01:34;;;;;;;;;;;;;;;29.59;60.78;99880.22;4487381;31;20048;-82
2022/06/02 13:04:18;;;;;;;;;;;;;;;29.43;60.78;99873.97;4485915;32;20000;-83
2022/06/02 13:07:02;;;;;;;;;;;;;;;29.20;60.77;99884.50;4487645;31;20361;-83
2022/06/02 13:09:33;;;;;;;;;;;;;;;29.33;60.78;99887.50;4485435;32;20016;-83
2022/06/02 13:12:01;;;;;;;;;;;;;;;29.58;60.79;99880.38;4485487;32;19992;-83
2022/06/02 13:14:39;;;;;;;;;;;;;;;29.61;60.78;99882.72;4487125;32;20028;-82
2022/06/02 13:17:07;;;;;;;;;;;;;;;29.67;60.79;99879.34;4487212;32;19987;-83
2022/06/02 13:19:32;;;;;;;;;;;;;;;29.42;60.78;99877.66;4487012;32;20370;-83
2022/06/02 13:22:20;;;;;;;;;;;;;;;29.58;60.79;99881.22;4487169;32;19994;-83
2022/06/02 13:24:48;;;;;;;;;;;;;;;29.75;60.80;99878.50;4485879;32;20414;-82
2022/06/02 13:27:25;;;;;;;;;;;;;;;29.59;60.79;99869.47;4485923;32;19987;-83
2022/06/02 13:30:04;;;;;;;;;;;;;;;29.47;60.77;99869.97;4485964;32;20012;-83
2022/06/02 13:32:48;;;;;;;;;;;;;;;29.19;60.77;99861.38;4485826;32;20414;-83